createdAt,value
2022-08-20T00:00:49.169Z,95362.03
2022-08-20T00:03:15.569Z,95360.34
2022-08-20T00:05:41.967Z,95356.59
2022-08-20T00:08:08.390Z,95354.72
2022-08-20T00:10:34.772Z,95358.34
2022-08-20T00:13:01.158Z,95352.03
2022-08-20T00:15:27.574Z,95351.22
2022-08-20T00:17:54.066Z,95350.06
2022-08-20T00:20:20.537Z,95345.50
2022-08-20T00:22:47.218Z,95351.69
2022-08-20T00:25:13.617Z,95348.81
2022-08-20T00:27:40.030Z,95342.38
2022-08-20T00:30:06.456Z,95332.16
2022-08-20T00:32:32.923Z,95349.44
2022-08-20T00:34:59.315Z,95342.78
2022-08-20T00:37:25.729Z,95342.16
2022-08-20T00:39:52.155Z,95345.75
2022-08-20T00:42:18.597Z,95349.38
2022-08-20T00:44:44.997Z,95345.78
2022-08-20T00:47:11.386Z,95352.44
2022-08-20T00:49:37.775Z,95350.56
2022-08-20T00:52:04.162Z,95349.31
2022-08-20T00:54:30.558Z,95338.16
2022-08-20T00:56:56.966Z,95339.25
2022-08-20T00:59:23.345Z,95346.56
2022-08-20T01:01:55.669Z,95346.19
2022-08-20T01:04:22.771Z,95340.69
2022-08-20T01:06:49.170Z,95345.28
2022-08-20T01:09:15.547Z,95344.31
2022-08-20T01:11:42.192Z,95343.19
2022-08-20T01:14:08.590Z,95339.03
2022-08-20T01:16:35.948Z,95341.22
2022-08-20T01:19:07.132Z,95342.78
2022-08-20T01:21:53.499Z,95339.88
2022-08-20T01:24:19.939Z,95339.19
2022-08-20T01:26:46.338Z,95340.44
2022-08-20T01:29:12.730Z,95336.19
2022-08-20T01:31:39.128Z,95342.19
2022-08-20T01:34:05.531Z,95331.84
2022-08-20T01:36:31.918Z,95347.47
2022-08-20T01:38:58.345Z,95341.09
2022-08-20T01:41:28.232Z,95348.47
2022-08-20T01:43:55.103Z,95349.34
2022-08-20T01:46:21.512Z,95343.72
2022-08-20T01:48:48.496Z,95347.47
2022-08-20T01:51:14.907Z,95349.31
2022-08-20T01:53:41.289Z,95341.25
2022-08-20T01:56:07.689Z,95341.81
2022-08-20T01:58:34.089Z,95329.84
2022-08-20T02:01:00.504Z,95336.47
2022-08-20T02:03:26.972Z,95338.09
2022-08-20T02:05:53.373Z,95331.59
2022-08-20T02:08:19.783Z,95335.94
2022-08-20T02:10:46.184Z,95329.41
2022-08-20T02:13:12.591Z,95319.84
2022-08-20T02:15:39.759Z,95316.91
2022-08-20T02:18:08.149Z,95318.41
2022-08-20T02:20:34.691Z,95315.34
2022-08-20T02:23:01.091Z,95314.63
2022-08-20T02:25:27.480Z,95311.13
2022-08-20T02:27:53.944Z,95308.63
2022-08-20T02:30:27.478Z,95319.84
2022-08-20T02:32:56.253Z,95313.66
2022-08-20T02:35:22.863Z,95313.13
2022-08-20T02:37:49.254Z,95323.75
2022-08-20T02:40:15.751Z,95314.69
2022-08-20T02:42:42.247Z,95311.88
2022-08-20T02:45:09.037Z,95310.03
2022-08-20T02:47:41.222Z,95310.69
2022-08-20T02:50:07.780Z,95315.19
2022-08-20T02:52:34.526Z,95307.34
2022-08-20T02:55:00.978Z,95302.75
2022-08-20T02:57:27.379Z,95306.06
2022-08-20T02:59:53.773Z,95309.41
2022-08-20T03:02:20.165Z,95306.75
2022-08-20T03:04:46.550Z,95300.06
2022-08-20T03:07:12.957Z,95303.50
2022-08-20T03:09:39.345Z,95311.00
2022-08-20T03:12:05.739Z,95309.66
2022-08-20T03:14:32.122Z,95313.88
2022-08-20T03:16:58.529Z,95317.44
2022-08-20T03:19:24.928Z,95321.56
2022-08-20T03:21:51.324Z,95322.88
2022-08-20T03:24:17.708Z,95326.22
2022-08-20T03:26:44.106Z,95320.19
2022-08-20T03:29:10.536Z,95325.34
2022-08-20T03:31:36.924Z,95319.56
2022-08-20T03:34:03.350Z,95314.69
2022-08-20T03:36:29.735Z,95321.75
2022-08-20T03:38:56.127Z,95319.13
2022-08-20T03:41:22.512Z,95325.22
2022-08-20T03:43:48.945Z,95316.59
2022-08-20T03:46:22.130Z,95322.16
2022-08-20T03:48:50.112Z,95321.28
2022-08-20T03:51:26.870Z,95320.84
2022-08-20T03:53:53.307Z,95318.03
2022-08-20T03:56:19.707Z,95314.91
2022-08-20T03:58:46.096Z,95311.59
2022-08-20T04:01:45.616Z,95316.34
2022-08-20T04:03:58.878Z,95316.84
2022-08-20T04:06:25.294Z,95305.53
2022-08-20T04:08:51.854Z,95310.91
2022-08-20T04:11:18.352Z,95315.91
2022-08-20T04:13:44.749Z,95318.78
2022-08-20T04:16:13.358Z,95320.16
2022-08-20T04:18:40.849Z,95323.13
2022-08-20T04:21:07.279Z,95325.03
2022-08-20T04:23:33.682Z,95320.97
2022-08-20T04:26:00.073Z,95326.63
2022-08-20T04:28:26.494Z,95323.63
2022-08-20T04:30:54.278Z,95321.69
2022-08-20T04:33:34.134Z,95321.38
2022-08-20T04:36:01.954Z,95319.13
2022-08-20T04:38:49.783Z,95323.06
2022-08-20T04:41:22.494Z,95322.47
2022-08-20T04:43:50.164Z,95320.63
2022-08-20T04:46:16.577Z,95324.28
2022-08-20T04:48:47.541Z,95322.13
2022-08-20T04:51:15.655Z,95328.97
2022-08-20T04:53:42.300Z,95333.72
2022-08-20T04:56:08.682Z,95328.47
2022-08-20T04:58:35.093Z,95333.59
2022-08-20T05:01:01.697Z,95332.63
2022-08-20T05:03:28.203Z,95349.38
2022-08-20T05:05:54.602Z,95349.38
2022-08-20T05:08:21.004Z,95348.50
2022-08-20T05:10:47.405Z,95350.97
2022-08-20T05:13:13.785Z,95351.88
2022-08-20T05:15:40.197Z,95351.13
2022-08-20T05:18:06.598Z,95342.44
2022-08-20T05:20:32.997Z,95355.91
2022-08-20T05:22:59.402Z,95341.25
2022-08-20T05:25:25.822Z,95356.38
2022-08-20T05:27:52.277Z,95367.03
2022-08-20T05:30:18.680Z,95359.22
2022-08-20T05:32:45.766Z,95365.13
2022-08-20T05:35:12.215Z,95376.13
2022-08-20T05:37:38.618Z,95378.75
2022-08-20T05:40:05.034Z,95375.19
2022-08-20T05:42:31.533Z,95384.03
2022-08-20T05:44:57.930Z,95387.94
2022-08-20T05:47:24.328Z,95384.59
2022-08-20T05:49:50.734Z,95383.94
2022-08-20T05:52:17.128Z,95389.28
2022-08-20T05:54:43.526Z,95380.84
2022-08-20T05:57:09.950Z,95377.66
2022-08-20T05:59:36.349Z,95382.25
2022-08-20T06:02:02.752Z,95388.09
2022-08-20T06:04:29.167Z,95382.75
2022-08-20T06:06:55.591Z,95387.66
2022-08-20T06:09:30.785Z,95383.53
2022-08-20T06:11:59.224Z,95378.72
2022-08-20T06:14:25.853Z,95381.00
2022-08-20T06:16:57.306Z,95384.81
2022-08-20T06:19:26.354Z,95389.63
2022-08-20T06:21:52.935Z,95389.28
2022-08-20T06:24:20.328Z,95389.63
2022-08-20T06:26:46.782Z,95390.72
2022-08-20T06:29:13.194Z,95398.69
2022-08-20T06:31:39.603Z,95390.91
2022-08-20T06:34:06.001Z,95391.13
2022-08-20T06:36:32.400Z,95392.47
2022-08-20T06:38:58.809Z,95391.78
2022-08-20T06:41:30.944Z,95390.28
2022-08-20T06:44:02.875Z,95392.34
2022-08-20T06:46:29.278Z,95397.69
2022-08-20T06:48:56.702Z,95400.09
2022-08-20T06:51:23.096Z,95399.03
2022-08-20T06:53:49.501Z,95395.53
2022-08-20T06:56:15.895Z,95399.53
2022-08-20T06:58:42.352Z,95397.09
2022-08-20T07:01:09.835Z,95395.56
2022-08-20T07:03:37.097Z,95400.72
2022-08-20T07:06:03.499Z,95398.13
2022-08-20T07:08:29.902Z,95400.81
2022-08-20T07:10:56.286Z,95394.63
2022-08-20T07:13:22.675Z,95401.81
2022-08-20T07:15:53.112Z,95398.19
2022-08-20T07:18:28.537Z,95398.34
2022-08-20T07:20:55.463Z,95401.59
2022-08-20T07:23:21.861Z,95387.31
2022-08-20T07:25:48.261Z,95403.16
2022-08-20T07:28:14.657Z,95398.78
2022-08-20T07:30:56.886Z,95404.78
2022-08-20T07:33:24.165Z,95402.16
2022-08-20T07:35:51.045Z,95416.25
2022-08-20T07:38:17.446Z,95415.06
2022-08-20T07:40:43.861Z,95412.63
2022-08-20T07:43:10.265Z,95409.59
2022-08-20T07:45:37.944Z,95412.81
2022-08-20T07:48:04.345Z,95416.41
2022-08-20T07:50:30.737Z,95419.13
2022-08-20T07:52:57.275Z,95417.00
2022-08-20T07:55:23.840Z,95420.16
2022-08-20T07:57:50.229Z,95414.03
2022-08-20T08:00:16.620Z,95421.06
2022-08-20T08:02:43.025Z,95424.50
2022-08-20T08:05:09.430Z,95422.75
2022-08-20T08:07:35.843Z,95423.81
2022-08-20T08:10:04.222Z,95422.31
2022-08-20T08:12:30.636Z,95427.13
2022-08-20T08:14:57.039Z,95428.47
2022-08-20T08:17:23.438Z,95421.44
2022-08-20T08:19:49.915Z,95426.50
2022-08-20T08:22:16.295Z,95435.03
2022-08-20T08:24:42.678Z,95438.34
2022-08-20T08:27:23.453Z,95432.59
2022-08-20T08:29:49.832Z,95436.94
2022-08-20T08:32:17.022Z,95438.69
2022-08-20T08:34:43.411Z,95435.25
2022-08-20T08:37:09.817Z,95436.31
2022-08-20T08:39:36.207Z,95435.50
2022-08-20T08:42:03.526Z,95436.69
2022-08-20T08:44:29.925Z,95435.13
2022-08-20T08:46:56.324Z,95439.00
2022-08-20T08:49:22.720Z,95447.63
2022-08-20T08:51:49.134Z,95451.19
2022-08-20T08:54:15.561Z,95457.56
2022-08-20T08:56:41.982Z,95461.09
2022-08-20T08:59:14.211Z,95450.72
2022-08-20T09:01:54.818Z,95448.88
2022-08-20T09:04:22.887Z,95460.72
2022-08-20T09:06:52.191Z,95459.34
2022-08-20T09:09:18.833Z,95455.06
2022-08-20T09:11:45.245Z,95458.31
2022-08-20T09:14:11.631Z,95453.28
2022-08-20T09:16:52.351Z,95453.78
2022-08-20T09:19:19.571Z,95453.44
2022-08-20T09:21:45.955Z,95454.91
2022-08-20T09:24:12.350Z,95455.84
2022-08-20T09:26:39.365Z,95459.53
2022-08-20T09:29:05.778Z,95463.13
2022-08-20T09:31:32.686Z,95459.44
2022-08-20T09:33:59.554Z,95451.72
2022-08-20T09:36:32.289Z,95452.63
2022-08-20T09:38:59.365Z,95457.28
2022-08-20T09:41:25.802Z,95458.78
2022-08-20T09:43:52.199Z,95460.66
2022-08-20T09:46:18.589Z,95454.41
2022-08-20T09:48:44.995Z,95455.31
2022-08-20T09:51:11.389Z,95453.69
2022-08-20T09:53:37.806Z,95452.94
2022-08-20T09:56:04.213Z,95446.50
2022-08-20T09:58:30.627Z,95450.47
2022-08-20T10:00:57.044Z,95450.88
2022-08-20T10:03:23.455Z,95447.34
2022-08-20T10:05:49.857Z,95450.78
2022-08-20T10:08:16.247Z,95447.56
2022-08-20T10:10:42.655Z,95445.72
2022-08-20T10:13:09.054Z,95447.22
2022-08-20T10:15:39.752Z,95440.44
2022-08-20T10:18:08.687Z,95441.63
2022-08-20T10:20:38.491Z,95440.94
2022-08-20T10:23:04.897Z,95439.59
2022-08-20T10:25:31.288Z,95438.50
2022-08-20T10:27:57.935Z,95431.47
2022-08-20T10:30:24.488Z,95434.81
2022-08-20T10:32:50.900Z,95429.13
2022-08-20T10:35:17.301Z,95427.00
2022-08-20T10:37:43.692Z,95436.25
2022-08-20T10:40:10.135Z,95432.94
2022-08-20T10:42:41.837Z,95426.13
2022-08-20T10:45:08.957Z,95429.31
2022-08-20T10:47:35.353Z,95434.59
2022-08-20T10:50:01.746Z,95433.16
2022-08-20T10:52:28.149Z,95427.31
2022-08-20T10:54:54.561Z,95415.75
2022-08-20T10:57:20.981Z,95418.88
2022-08-20T10:59:47.365Z,95421.19
2022-08-20T11:02:13.861Z,95419.41
2022-08-20T11:04:40.297Z,95421.34
2022-08-20T11:07:06.708Z,95421.97
2022-08-20T11:09:33.103Z,95415.41
2022-08-20T11:11:59.509Z,95419.31
2022-08-20T11:14:25.999Z,95412.72
2022-08-20T11:16:52.396Z,95410.31
2022-08-20T11:19:18.784Z,95409.72
2022-08-20T11:21:46.501Z,95413.84
2022-08-20T11:24:12.887Z,95410.53
2022-08-20T11:26:39.280Z,95411.03
2022-08-20T11:29:05.682Z,95407.22
2022-08-20T11:31:32.084Z,95398.25
2022-08-20T11:33:58.460Z,95404.91
2022-08-20T11:36:24.858Z,95402.78
2022-08-20T11:38:51.227Z,95402.69
2022-08-20T11:41:17.636Z,95407.34
2022-08-20T11:43:59.508Z,95406.41
2022-08-20T11:46:30.427Z,95408.25
2022-08-20T11:48:56.824Z,95403.78
2022-08-20T11:51:23.219Z,95396.44
2022-08-20T11:53:49.635Z,95397.50
2022-08-20T11:56:16.029Z,95397.53
2022-08-20T11:58:42.799Z,95405.66
2022-08-20T12:01:09.196Z,95404.63
2022-08-20T12:03:35.643Z,95406.19
2022-08-20T12:06:02.035Z,95404.06
2022-08-20T12:08:28.419Z,95401.72
2022-08-20T12:10:54.829Z,95403.03
2022-08-20T12:13:21.216Z,95403.28
2022-08-20T12:15:56.991Z,95409.44
2022-08-20T12:18:23.377Z,95407.94
2022-08-20T12:20:53.446Z,95406.88
2022-08-20T12:23:19.819Z,95400.59
2022-08-20T12:25:46.208Z,95403.72
2022-08-20T12:28:12.606Z,95400.13
2022-08-20T12:30:39.048Z,95405.38
2022-08-20T12:33:05.463Z,95402.22
2022-08-20T12:35:32.604Z,95401.63
2022-08-20T12:38:01.886Z,95407.59
2022-08-20T12:40:31.837Z,95402.28
2022-08-20T12:42:59.419Z,95398.50
2022-08-20T12:45:25.840Z,95400.72
2022-08-20T12:47:52.342Z,95402.50
2022-08-20T12:50:18.729Z,95394.31
2022-08-20T12:52:45.111Z,95398.03
2022-08-20T12:55:11.553Z,95399.84
2022-08-20T12:57:37.949Z,95401.09
2022-08-20T13:00:04.896Z,95400.06
2022-08-20T13:02:31.342Z,95406.84
2022-08-20T13:05:02.481Z,95404.16
2022-08-20T13:07:31.127Z,95405.72
2022-08-20T13:09:57.521Z,95403.41
2022-08-20T13:12:23.916Z,95400.22
2022-08-20T13:14:50.326Z,95392.38
2022-08-20T13:17:16.726Z,95394.03
2022-08-20T13:19:43.133Z,95397.19
2022-08-20T13:22:09.508Z,95392.56
2022-08-20T13:24:35.902Z,95390.25
2022-08-20T13:27:02.307Z,95386.53
2022-08-20T13:29:28.693Z,95389.28
2022-08-20T13:31:55.076Z,95389.03
2022-08-20T13:34:21.452Z,95387.28
2022-08-20T13:36:47.866Z,95384.84
2022-08-20T13:39:14.248Z,95381.41
2022-08-20T13:41:40.656Z,95377.09
2022-08-20T13:44:07.061Z,95370.25
2022-08-20T13:46:33.501Z,95373.69
2022-08-20T13:48:59.890Z,95369.94
2022-08-20T13:51:27.708Z,95361.69
2022-08-20T13:53:57.085Z,95362.44
2022-08-20T13:56:23.473Z,95364.56
2022-08-20T13:58:49.867Z,95363.16
2022-08-20T14:01:19.576Z,95359.66
2022-08-20T14:03:46.005Z,95364.31
2022-08-20T14:06:12.776Z,95364.53
2022-08-20T14:08:39.162Z,95361.75
2022-08-20T14:11:05.534Z,95367.84
2022-08-20T14:13:31.954Z,95363.69
2022-08-20T14:15:58.350Z,95364.41
2022-08-20T14:18:24.731Z,95365.91
2022-08-20T14:20:51.105Z,95369.19
2022-08-20T14:23:17.501Z,95373.38
2022-08-20T14:25:43.888Z,95360.81
2022-08-20T14:28:10.276Z,95358.25
2022-08-20T14:30:36.677Z,95361.56
2022-08-20T14:33:03.079Z,95362.25
2022-08-20T14:35:29.472Z,95356.47
2022-08-20T14:37:55.854Z,95358.84
2022-08-20T14:40:22.346Z,95353.47
2022-08-20T14:42:51.760Z,95360.81
2022-08-20T14:45:18.391Z,95362.75
2022-08-20T14:47:44.775Z,95360.63
2022-08-20T14:50:11.280Z,95361.94
2022-08-20T14:52:37.690Z,95355.53
2022-08-20T14:55:04.079Z,95358.00
2022-08-20T14:57:30.491Z,95358.13
2022-08-20T14:59:56.890Z,95356.16
2022-08-20T15:02:23.289Z,95354.94
2022-08-20T15:04:54.187Z,95352.28
2022-08-20T15:07:22.018Z,95340.09
2022-08-20T15:09:48.687Z,95339.47
2022-08-20T15:12:15.063Z,95338.72
2022-08-20T15:14:41.458Z,95343.09
2022-08-20T15:17:07.836Z,95340.53
2022-08-20T15:19:34.231Z,95340.19
2022-08-20T15:22:00.615Z,95337.56
2022-08-20T15:24:27.038Z,95327.03
2022-08-20T15:26:53.509Z,95333.28
2022-08-20T15:29:23.168Z,95328.03
2022-08-20T15:31:50.006Z,95324.91
2022-08-20T15:34:17.954Z,95326.22
2022-08-20T15:36:44.581Z,95316.63
2022-08-20T15:39:10.965Z,95316.31
2022-08-20T15:41:37.395Z,95319.38
2022-08-20T15:44:03.808Z,95310.88
2022-08-20T15:46:33.576Z,95316.97
2022-08-20T15:49:03.997Z,95314.53
2022-08-20T15:51:30.484Z,95311.13
2022-08-20T15:53:56.915Z,95310.19
2022-08-20T15:56:23.356Z,95309.59
2022-08-20T15:58:49.760Z,95314.28
2022-08-20T16:01:25.384Z,95312.56
2022-08-20T16:03:52.556Z,95317.13
2022-08-20T16:06:18.937Z,95312.59
2022-08-20T16:08:45.348Z,95316.44
2022-08-20T16:11:11.738Z,95317.59
2022-08-20T16:13:38.173Z,95315.41
2022-08-20T16:16:05.282Z,95310.53
2022-08-20T16:18:31.678Z,95308.19
2022-08-20T16:21:01.809Z,95316.97
2022-08-20T16:23:29.896Z,95319.06
2022-08-20T16:25:56.300Z,95320.06
2022-08-20T16:28:22.693Z,95318.91
2022-08-20T16:30:49.071Z,95324.50
2022-08-20T16:33:15.466Z,95319.88
2022-08-20T16:35:41.852Z,95313.03
2022-08-20T16:38:08.635Z,95307.09
2022-08-20T16:40:35.022Z,95306.13
2022-08-20T16:43:01.416Z,95313.84
2022-08-20T16:45:27.806Z,95315.19
2022-08-20T16:47:54.222Z,95317.19
2022-08-20T16:50:20.645Z,95314.47
2022-08-20T16:52:47.100Z,95318.56
2022-08-20T16:55:13.480Z,95318.44
2022-08-20T16:57:39.869Z,95321.94
2022-08-20T17:00:06.306Z,95313.81
2022-08-20T17:02:32.706Z,95305.63
2022-08-20T17:05:00.215Z,95309.72
2022-08-20T17:07:29.710Z,95308.03
2022-08-20T17:09:59.798Z,95302.06
2022-08-20T17:12:29.257Z,95304.72
2022-08-20T17:14:55.664Z,95302.19
2022-08-20T17:17:22.086Z,95299.31
2022-08-20T17:19:48.488Z,95301.84
2022-08-20T17:22:16.965Z,95293.44
2022-08-20T17:24:43.357Z,95294.41
2022-08-20T17:27:10.368Z,95295.53
2022-08-20T17:29:37.068Z,95293.66
2022-08-20T17:32:03.435Z,95295.31
2022-08-20T17:34:29.843Z,95297.06
2022-08-20T17:36:56.222Z,95292.28
2022-08-20T17:39:22.665Z,95302.81
2022-08-20T17:41:49.088Z,95290.31
2022-08-20T17:44:15.483Z,95290.59
2022-08-20T17:46:41.915Z,95298.72
2022-08-20T17:49:08.321Z,95294.22
2022-08-20T17:51:34.719Z,95294.16
2022-08-20T17:54:01.104Z,95299.44
2022-08-20T17:56:27.505Z,95289.00
2022-08-20T17:58:54.987Z,95294.03
2022-08-20T18:01:22.462Z,95289.63
2022-08-20T18:03:48.886Z,95283.28
2022-08-20T18:06:15.286Z,95283.50
2022-08-20T18:08:41.668Z,95287.50
2022-08-20T18:11:08.067Z,95287.00
2022-08-20T18:13:34.476Z,95286.75
2022-08-20T18:16:00.857Z,95285.84
2022-08-20T18:18:27.256Z,95279.94
2022-08-20T18:20:53.667Z,95281.47
2022-08-20T18:23:20.041Z,95290.66
2022-08-20T18:25:46.450Z,95290.47
2022-08-20T18:28:12.835Z,95291.13
2022-08-20T18:30:39.294Z,95289.63
2022-08-20T18:33:05.679Z,95299.88
2022-08-20T18:35:32.071Z,95293.59
2022-08-20T18:37:58.524Z,95293.53
2022-08-20T18:40:24.895Z,95287.91
2022-08-20T18:42:51.288Z,95289.88
2022-08-20T18:45:17.692Z,95295.06
2022-08-20T18:47:45.195Z,95296.84
2022-08-20T18:50:15.950Z,95295.66
2022-08-20T18:52:43.514Z,95307.78
2022-08-20T18:55:09.925Z,95300.16
2022-08-20T18:57:41.353Z,95304.84
2022-08-20T19:00:08.279Z,95302.03
2022-08-20T19:02:34.674Z,95299.81
2022-08-20T19:05:02.187Z,95304.50
2022-08-20T19:07:48.445Z,95308.28
2022-08-20T19:10:24.128Z,95306.97
2022-08-20T19:12:54.556Z,95302.47
2022-08-20T19:15:20.941Z,95308.97
2022-08-20T19:17:47.331Z,95310.34
2022-08-20T19:20:13.757Z,95310.47
2022-08-20T19:22:40.166Z,95309.44
2022-08-20T19:25:06.555Z,95305.41
2022-08-20T19:27:32.970Z,95304.78
2022-08-20T19:29:59.377Z,95304.38
2022-08-20T19:32:26.292Z,95303.91
2022-08-20T19:34:52.685Z,95307.69
2022-08-20T19:37:35.085Z,95307.84
2022-08-20T19:40:05.705Z,95309.03
2022-08-20T19:42:32.160Z,95307.09
2022-08-20T19:44:58.564Z,95304.84
2022-08-20T19:47:24.953Z,95310.88
2022-08-20T19:49:51.361Z,95315.53
2022-08-20T19:52:17.766Z,95311.81
2022-08-20T19:54:45.916Z,95306.44
2022-08-20T19:57:13.451Z,95321.25
2022-08-20T19:59:39.840Z,95312.44
2022-08-20T20:02:21.514Z,95322.44
2022-08-20T20:04:54.841Z,95313.28
2022-08-20T20:07:22.245Z,95312.09
2022-08-20T20:09:49.006Z,95313.72
2022-08-20T20:12:22.741Z,95315.81
2022-08-20T20:14:49.528Z,95314.31
2022-08-20T20:17:21.022Z,95317.44
2022-08-20T20:19:49.289Z,95322.50
2022-08-20T20:22:20.229Z,95322.91
2022-08-20T20:24:46.914Z,95328.78
2022-08-20T20:27:14.832Z,95316.66
2022-08-20T20:29:46.496Z,95320.72
2022-08-20T20:32:12.884Z,95316.81
2022-08-20T20:34:55.006Z,95323.00
2022-08-20T20:37:27.787Z,95317.75
2022-08-20T20:40:13.000Z,95315.53
2022-08-20T20:42:46.516Z,95316.50
2022-08-20T20:45:12.899Z,95325.91
2022-08-20T20:47:39.305Z,95319.63
2022-08-20T20:50:05.710Z,95317.22
2022-08-20T20:52:32.126Z,95321.41
2022-08-20T20:54:58.606Z,95317.22
2022-08-20T20:57:36.466Z,95316.03
2022-08-20T21:00:05.187Z,95308.41
2022-08-20T21:02:33.159Z,95309.44
2022-08-20T21:04:59.546Z,95307.19
2022-08-20T21:07:25.952Z,95317.25
2022-08-20T21:09:52.353Z,95318.44
2022-08-20T21:12:18.758Z,95313.19
2022-08-20T21:14:45.151Z,95311.97
2022-08-20T21:17:11.536Z,95317.38
2022-08-20T21:19:40.234Z,95310.66
2022-08-20T21:22:11.790Z,95315.44
2022-08-20T21:24:38.204Z,95320.38
2022-08-20T21:27:04.620Z,95307.94
2022-08-20T21:29:32.669Z,95308.25
2022-08-20T21:31:59.486Z,95311.69
2022-08-20T21:34:25.912Z,95313.34
2022-08-20T21:36:52.443Z,95306.28
2022-08-20T21:39:20.601Z,95305.84
2022-08-20T21:41:46.995Z,95304.97
2022-08-20T21:44:13.405Z,95310.66
2022-08-20T21:46:39.797Z,95309.75
2022-08-20T21:49:06.196Z,95308.38
2022-08-20T21:51:33.141Z,95311.97
2022-08-20T21:53:59.602Z,95315.09
2022-08-20T21:56:26.026Z,95307.94
2022-08-20T21:58:55.103Z,95310.00
2022-08-20T22:01:21.724Z,95300.16
2022-08-20T22:03:49.575Z,95308.53
2022-08-20T22:06:18.341Z,95312.44
2022-08-20T22:08:44.733Z,95311.81
2022-08-20T22:11:11.161Z,95313.03
2022-08-20T22:13:37.584Z,95310.50
2022-08-20T22:16:03.973Z,95317.06
2022-08-20T22:18:33.351Z,95318.16
2022-08-20T22:20:59.740Z,95316.19
2022-08-20T22:23:26.166Z,95301.81
2022-08-20T22:25:52.554Z,95310.66
2022-08-20T22:28:18.954Z,95307.50
2022-08-20T22:30:45.370Z,95301.97
2022-08-20T22:33:11.750Z,95307.03
2022-08-20T22:35:38.170Z,95307.50
2022-08-20T22:38:04.553Z,95307.78
2022-08-20T22:40:30.957Z,95308.09
2022-08-20T22:42:57.512Z,95307.94
2022-08-20T22:45:24.028Z,95295.97
2022-08-20T22:47:50.427Z,95297.44
2022-08-20T22:50:16.808Z,95289.38
2022-08-20T22:52:43.226Z,95289.66
2022-08-20T22:55:09.723Z,95289.66
2022-08-20T22:57:36.186Z,95294.19
2022-08-20T23:00:02.599Z,95286.38
2022-08-20T23:02:28.976Z,95288.03
2022-08-20T23:04:55.385Z,95291.34
2022-08-20T23:07:21.760Z,95284.91
2022-08-20T23:09:48.201Z,95285.34
2022-08-20T23:12:14.620Z,95282.97
2022-08-20T23:14:41.018Z,95281.31
2022-08-20T23:17:11.329Z,95275.91
2022-08-20T23:19:39.617Z,95281.31
2022-08-20T23:22:05.989Z,95270.97
2022-08-20T23:24:32.378Z,95274.72
2022-08-20T23:26:58.776Z,95271.59
2022-08-20T23:29:25.794Z,95275.47
2022-08-20T23:31:52.490Z,95273.22
2022-08-20T23:34:18.873Z,95269.19
2022-08-20T23:36:45.266Z,95275.94
2022-08-20T23:39:11.648Z,95269.94
2022-08-20T23:41:38.058Z,95276.53
2022-08-20T23:44:26.493Z,95274.13
2022-08-20T23:46:54.621Z,95269.47
2022-08-20T23:49:21.170Z,95269.94
2022-08-20T23:51:47.619Z,95265.44
2022-08-20T23:54:14.023Z,95272.94
2022-08-20T23:56:40.403Z,95268.28
2022-08-20T23:59:06.812Z,95253.00
